sensor_id;sensor_type;location;lat;lon;timestamp;pressure;altitude;pressure_sealevel;temperature;humidity
81057;BME280;70563;50.084;14.468;2023-07-13T00:01:45;98294.94;;;21.99;54.91
81057;BME280;70563;50.084;14.468;2023-07-13T00:04:15;98307.88;;;22.07;54.23
81057;BME280;70563;50.084;14.468;2023-07-13T00:06:41;98300.31;;;22.04;54.39
81057;BME280;70563;50.084;14.468;2023-07-13T00:09:11;98293.34;;;22.08;54.11
81057;BME280;70563;50.084;14.468;2023-07-13T00:11:37;98300.34;;;22.14;53.66
81057;BME280;70563;50.084;14.468;2023-07-13T00:14:03;98303.81;;;22.10;54.02
81057;BME280;70563;50.084;14.468;2023-07-13T00:16:28;98309.19;;;22.10;54.37
81057;BME280;70563;50.084;14.468;2023-07-13T00:18:54;98307.63;;;22.14;54.21
81057;BME280;70563;50.084;14.468;2023-07-13T00:21:19;98306.25;;;22.11;54.32
81057;BME280;70563;50.084;14.468;2023-07-13T00:23:44;98302.78;;;22.11;54.22
81057;BME280;70563;50.084;14.468;2023-07-13T00:26:11;98307.31;;;22.10;54.58
81057;BME280;70563;50.084;14.468;2023-07-13T00:28:37;98308.94;;;22.11;54.85
81057;BME280;70563;50.084;14.468;2023-07-13T00:31:02;98303.56;;;22.11;54.85
81057;BME280;70563;50.084;14.468;2023-07-13T00:33:28;98300.91;;;22.16;54.78
81057;BME280;70563;50.084;14.468;2023-07-13T00:35:57;98301.19;;;22.25;55.30
81057;BME280;70563;50.084;14.468;2023-07-13T00:38:23;98292.84;;;22.21;55.30
81057;BME280;70563;50.084;14.468;2023-07-13T00:40:48;98280.47;;;22.15;55.67
81057;BME280;70563;50.084;14.468;2023-07-13T00:43:20;98269.66;;;22.05;56.18
81057;BME280;70563;50.084;14.468;2023-07-13T00:48:13;98269.41;;;22.01;57.09
81057;BME280;70563;50.084;14.468;2023-07-13T00:50:40;98264.03;;;22.01;56.98
81057;BME280;70563;50.084;14.468;2023-07-13T00:53:06;98259.72;;;22.05;57.38
81057;BME280;70563;50.084;14.468;2023-07-13T00:55:33;98255.47;;;22.20;57.47
81057;BME280;70563;50.084;14.468;2023-07-13T00:57:59;98246.59;;;22.19;57.55
81057;BME280;70563;50.084;14.468;2023-07-13T01:00:25;98246.59;;;22.19;58.30
81057;BME280;70563;50.084;14.468;2023-07-13T01:02:51;98260.06;;;22.19;58.71
81057;BME280;70563;50.084;14.468;2023-07-13T01:05:19;98265.44;;;22.24;58.95
81057;BME280;70563;50.084;14.468;2023-07-13T01:07:47;98268.91;;;22.30;59.05
81057;BME280;70563;50.084;14.468;2023-07-13T01:10:13;98260.03;;;22.29;59.49
81057;BME280;70563;50.084;14.468;2023-07-13T01:12:39;98267.03;;;22.25;59.08
81057;BME280;70563;50.084;14.468;2023-07-13T01:15:05;98252.78;;;22.25;60.21
81057;BME280;70563;50.084;14.468;2023-07-13T01:17:51;98256.28;;;22.31;61.29
81057;BME280;70563;50.084;14.468;2023-07-13T01:20:16;98246.59;;;22.24;60.89
81057;BME280;70563;50.084;14.468;2023-07-13T01:22:42;98243.34;;;22.27;61.34
81057;BME280;70563;50.084;14.468;2023-07-13T01:25:07;98236.91;;;22.18;61.57
81057;BME280;70563;50.084;14.468;2023-07-13T01:27:33;98248.22;;;22.15;61.80
81057;BME280;70563;50.084;14.468;2023-07-13T01:29:59;98250.06;;;22.15;61.71
81057;BME280;70563;50.084;14.468;2023-07-13T01:32:28;98259.19;;;22.09;61.96
81057;BME280;70563;50.084;14.468;2023-07-13T01:34:56;98256.22;;;22.10;62.13
81057;BME280;70563;50.084;14.468;2023-07-13T01:37:25;98246.06;;;22.12;61.97
81057;BME280;70563;50.084;14.468;2023-07-13T01:39:51;98243.63;;;22.11;62.06
81057;BME280;70563;50.084;14.468;2023-07-13T01:42:17;98243.06;;;22.09;62.49
81057;BME280;70563;50.084;14.468;2023-07-13T01:44:42;98246.56;;;22.04;62.88
81057;BME280;70563;50.084;14.468;2023-07-13T01:47:08;98252.75;;;21.94;63.14
81057;BME280;70563;50.084;14.468;2023-07-13T01:49:34;98249.78;;;21.91;63.54
81057;BME280;70563;50.084;14.468;2023-07-13T01:51:59;98245.72;;;21.88;63.57
81057;BME280;70563;50.084;14.468;2023-07-13T01:54:24;98252.72;;;21.79;63.85
81057;BME280;70563;50.084;14.468;2023-07-13T01:56:50;98249.50;;;21.72;64.37
81057;BME280;70563;50.084;14.468;2023-07-13T01:59:15;98256.19;;;21.69;64.76
81057;BME280;70563;50.084;14.468;2023-07-13T02:01:40;98247.56;;;21.57;65.03
81057;BME280;70563;50.084;14.468;2023-07-13T02:04:06;98254.81;;;21.57;64.68
81057;BME280;70563;50.084;14.468;2023-07-13T02:06:31;98253.47;;;21.54;64.70
81057;BME280;70563;50.084;14.468;2023-07-13T02:08:57;98242.19;;;21.57;64.64
81057;BME280;70563;50.084;14.468;2023-07-13T02:11:23;98243.78;;;21.48;64.88
81057;BME280;70563;50.084;14.468;2023-07-13T02:13:50;98247.53;;;21.47;65.79
81057;BME280;70563;50.084;14.468;2023-07-13T02:16:15;98242.13;;;21.37;65.84
81057;BME280;70563;50.084;14.468;2023-07-13T02:18:40;98239.69;;;21.30;66.07
81057;BME280;70563;50.084;14.468;2023-07-13T02:21:06;98248.31;;;21.37;66.33
81057;BME280;70563;50.084;14.468;2023-07-13T02:23:32;98245.66;;;21.52;66.16
81057;BME280;70563;50.084;14.468;2023-07-13T02:25:58;98254.53;;;21.48;66.13
81057;BME280;70563;50.084;14.468;2023-07-13T02:28:23;98259.41;;;21.61;65.84
81057;BME280;70563;50.084;14.468;2023-07-13T02:30:49;98279.81;;;21.67;65.54
81057;BME280;70563;50.084;14.468;2023-07-13T02:33:14;98275.81;;;21.75;65.58
81057;BME280;70563;50.084;14.468;2023-07-13T02:35:40;98273.97;;;21.81;65.33
81057;BME280;70563;50.084;14.468;2023-07-13T02:38:06;98276.91;;;21.79;65.62
81057;BME280;70563;50.084;14.468;2023-07-13T02:40:31;98276.66;;;21.86;65.50
81057;BME280;70563;50.084;14.468;2023-07-13T02:42:58;98280.94;;;21.82;65.34
81057;BME280;70563;50.084;14.468;2023-07-13T02:45:24;98274.47;;;21.72;65.88
81057;BME280;70563;50.084;14.468;2023-07-13T02:47:50;98276.59;;;21.65;66.11
81057;BME280;70563;50.084;14.468;2023-07-13T02:50:15;98284.66;;;21.60;66.33
81057;BME280;70563;50.084;14.468;2023-07-13T02:52:41;98294.59;;;21.60;66.54
81057;BME280;70563;50.084;14.468;2023-07-13T02:55:06;98293.75;;;21.49;66.70
81057;BME280;70563;50.084;14.468;2023-07-13T02:57:31;98295.59;;;21.43;67.01
81057;BME280;70563;50.084;14.468;2023-07-13T02:59:59;98302.28;;;21.36;67.46
81057;BME280;70563;50.084;14.468;2023-07-13T03:02:24;98296.06;;;21.30;68.17
81057;BME280;70563;50.084;14.468;2023-07-13T03:04:50;98305.91;;;21.09;69.06
81057;BME280;70563;50.084;14.468;2023-07-13T03:07:15;98295.13;;;21.04;69.79
81057;BME280;70563;50.084;14.468;2023-07-13T03:09:41;98307.66;;;20.88;70.59
81057;BME280;70563;50.084;14.468;2023-07-13T03:12:06;98304.19;;;20.93;70.54
81057;BME280;70563;50.084;14.468;2023-07-13T03:14:32;98303.06;;;20.84;71.06
81057;BME280;70563;50.084;14.468;2023-07-13T03:16:57;98307.00;;;20.71;71.68
81057;BME280;70563;50.084;14.468;2023-07-13T03:19:23;98302.72;;;20.70;71.53
81057;BME280;70563;50.084;14.468;2023-07-13T03:21:48;98308.28;;;20.63;71.34
81057;BME280;70563;50.084;14.468;2023-07-13T03:24:13;98306.66;;;20.62;70.27
81057;BME280;70563;50.084;14.468;2023-07-13T03:26:39;98320.69;;;20.69;69.22
81057;BME280;70563;50.084;14.468;2023-07-13T03:29:04;98324.19;;;20.75;68.89
81057;BME280;70563;50.084;14.468;2023-07-13T03:31:34;98327.44;;;20.77;69.55
81057;BME280;70563;50.084;14.468;2023-07-13T03:34:00;98334.66;;;20.76;70.23
81057;BME280;70563;50.084;14.468;2023-07-13T03:36:27;98333.50;;;20.62;69.69
81057;BME280;70563;50.084;14.468;2023-07-13T03:38:56;98350.75;;;20.76;67.14
81057;BME280;70563;50.084;14.468;2023-07-13T03:41:22;98358.47;;;20.68;66.94
81057;BME280;70563;50.084;14.468;2023-07-13T03:43:48;98359.31;;;20.68;66.63
81057;BME280;70563;50.084;14.468;2023-07-13T03:46:15;98367.91;;;20.70;64.38
81057;BME280;70563;50.084;14.468;2023-07-13T03:48:41;98366.19;;;20.59;61.97
81057;BME280;70563;50.084;14.468;2023-07-13T03:51:09;98368.00;;;20.48;61.07
81057;BME280;70563;50.084;14.468;2023-07-13T03:53:38;98367.00;;;20.33;61.32
81057;BME280;70563;50.084;14.468;2023-07-13T03:56:04;98367.56;;;20.35;60.14
81057;BME280;70563;50.084;14.468;2023-07-13T03:58:38;98364.59;;;20.31;59.84
81057;BME280;70563;50.084;14.468;2023-07-13T04:01:06;98363.06;;;20.40;59.19
81057;BME280;70563;50.084;14.468;2023-07-13T04:03:33;98372.38;;;20.33;59.08
81057;BME280;70563;50.084;14.468;2023-07-13T04:06:00;98379.28;;;20.28;58.93
81057;BME280;70563;50.084;14.468;2023-07-13T04:08:31;98381.47;;;20.32;58.26
81057;BME280;70563;50.084;14.468;2023-07-13T04:10:57;98387.50;;;20.44;57.34
81057;BME280;70563;50.084;14.468;2023-07-13T04:13:23;98396.47;;;20.54;56.32
81057;BME280;70563;50.084;14.468;2023-07-13T04:15:49;98397.41;;;20.43;56.08
81057;BME280;70563;50.084;14.468;2023-07-13T04:18:14;98389.44;;;20.48;56.44
81057;BME280;70563;50.084;14.468;2023-07-13T04:20:40;98389.69;;;20.47;55.93
81057;BME280;70563;50.084;14.468;2023-07-13T04:23:05;98390.09;;;20.34;55.84
81057;BME280;70563;50.084;14.468;2023-07-13T04:25:30;98392.59;;;20.18;56.03
81057;BME280;70563;50.084;14.468;2023-07-13T04:27:56;98394.72;;;20.16;56.10
81057;BME280;70563;50.084;14.468;2023-07-13T04:30:21;98396.53;;;20.11;56.61
81057;BME280;70563;50.084;14.468;2023-07-13T04:32:47;98403.78;;;20.10;56.86
81057;BME280;70563;50.084;14.468;2023-07-13T04:35:13;98401.66;;;20.12;56.76
81057;BME280;70563;50.084;14.468;2023-07-13T04:37:39;98398.72;;;20.14;56.25
81057;BME280;70563;50.084;14.468;2023-07-13T04:40:05;98401.59;;;20.07;56.47
81057;BME280;70563;50.084;14.468;2023-07-13T04:42:31;98404.44;;;20.22;55.81
81057;BME280;70563;50.084;14.468;2023-07-13T04:44:56;98407.94;;;20.23;55.65
81057;BME280;70563;50.084;14.468;2023-07-13T04:47:22;98406.56;;;20.20;55.71
81057;BME280;70563;50.084;14.468;2023-07-13T04:49:47;98406.28;;;20.17;55.68
81057;BME280;70563;50.084;14.468;2023-07-13T04:52:12;98413.38;;;20.06;55.67
81057;BME280;70563;50.084;14.468;2023-07-13T04:54:38;98408.72;;;19.96;56.58
81057;BME280;70563;50.084;14.468;2023-07-13T04:57:04;98418.25;;;20.09;56.37
81057;BME280;70563;50.084;14.468;2023-07-13T04:59:33;98412.88;;;20.09;56.54
81057;BME280;70563;50.084;14.468;2023-07-13T05:01:59;98424.16;;;20.11;56.36
81057;BME280;70563;50.084;14.468;2023-07-13T05:04:25;98425.88;;;19.95;56.28
81057;BME280;70563;50.084;14.468;2023-07-13T05:06:50;98428.22;;;20.14;56.22
81057;BME280;70563;50.084;14.468;2023-07-13T05:09:16;98424.66;;;20.08;56.49
81057;BME280;70563;50.084;14.468;2023-07-13T05:11:41;98420.31;;;20.29;56.25
81057;BME280;70563;50.084;14.468;2023-07-13T05:14:07;98426.88;;;20.16;56.80
81057;BME280;70563;50.084;14.468;2023-07-13T05:16:34;98421.69;;;19.83;58.08
81057;BME280;70563;50.084;14.468;2023-07-13T05:19:00;98411.22;;;19.81;58.45
81057;BME280;70563;50.084;14.468;2023-07-13T05:21:25;98421.53;;;19.72;58.95
81057;BME280;70563;50.084;14.468;2023-07-13T05:23:50;98428.78;;;19.72;59.24
81057;BME280;70563;50.084;14.468;2023-07-13T05:26:16;98433.66;;;19.58;59.46
81057;BME280;70563;50.084;14.468;2023-07-13T05:28:41;98440.88;;;19.74;59.16
81057;BME280;70563;50.084;14.468;2023-07-13T05:31:08;98433.22;;;19.83;58.97
81057;BME280;70563;50.084;14.468;2023-07-13T05:33:34;98439.09;;;20.07;57.93
81057;BME280;70563;50.084;14.468;2023-07-13T05:35:59;98441.78;;;20.51;56.96
81057;BME280;70563;50.084;14.468;2023-07-13T05:38:26;98442.41;;;20.90;55.63
81057;BME280;70563;50.084;14.468;2023-07-13T05:40:54;98445.44;;;21.04;55.41
81057;BME280;70563;50.084;14.468;2023-07-13T05:43:19;98450.13;;;20.87;55.80
81057;BME280;70563;50.084;14.468;2023-07-13T05:45:45;98448.50;;;21.18;55.00
81057;BME280;70563;50.084;14.468;2023-07-13T05:48:10;98455.97;;;21.48;53.99
81057;BME280;70563;50.084;14.468;2023-07-13T05:50:35;98456.41;;;21.77;53.35
81057;BME280;70563;50.084;14.468;2023-07-13T05:53:01;98445.97;;;21.81;53.21
81057;BME280;70563;50.084;14.468;2023-07-13T05:55:26;98451.28;;;21.75;53.36
81057;BME280;70563;50.084;14.468;2023-07-13T05:57:52;98463.09;;;21.74;53.66
81057;BME280;70563;50.084;14.468;2023-07-13T06:00:17;98464.50;;;21.82;53.02
81057;BME280;70563;50.084;14.468;2023-07-13T06:02:43;98458.97;;;22.09;52.53
81057;BME280;70563;50.084;14.468;2023-07-13T06:05:08;98467.00;;;22.04;52.37
81057;BME280;70563;50.084;14.468;2023-07-13T06:07:34;98465.53;;;22.34;51.56
81057;BME280;70563;50.084;14.468;2023-07-13T06:09:59;98455.91;;;22.68;50.44
81057;BME280;70563;50.084;14.468;2023-07-13T06:12:25;98458.59;;;22.78;50.30
81057;BME280;70563;50.084;14.468;2023-07-13T06:14:51;98468.81;;;23.48;48.52
81057;BME280;70563;50.084;14.468;2023-07-13T06:17:16;98469.22;;;24.06;47.26
81057;BME280;70563;50.084;14.468;2023-07-13T06:19:42;98472.88;;;24.31;46.47
81057;BME280;70563;50.084;14.468;2023-07-13T06:22:07;98470.72;;;24.33;46.11
81057;BME280;70563;50.084;14.468;2023-07-13T06:24:33;98477.16;;;23.77;47.36
81057;BME280;70563;50.084;14.468;2023-07-13T06:26:58;98486.06;;;24.42;46.07
81057;BME280;70563;50.084;14.468;2023-07-13T06:29:23;98490.34;;;24.93;44.62
81057;BME280;70563;50.084;14.468;2023-07-13T06:31:49;98488.47;;;25.27;43.36
81057;BME280;70563;50.084;14.468;2023-07-13T06:34:17;98487.13;;;25.25;43.77
81057;BME280;70563;50.084;14.468;2023-07-13T06:36:43;98482.50;;;25.31;43.79
81057;BME280;70563;50.084;14.468;2023-07-13T06:39:09;98480.84;;;26.12;41.92
81057;BME280;70563;50.084;14.468;2023-07-13T06:41:34;98473.47;;;26.60;40.73
81057;BME280;70563;50.084;14.468;2023-07-13T06:44:00;98478.91;;;25.93;41.89
81057;BME280;70563;50.084;14.468;2023-07-13T06:46:25;98480.69;;;26.84;40.18
81057;BME280;70563;50.084;14.468;2023-07-13T06:48:51;98488.59;;;28.06;37.58
81057;BME280;70563;50.084;14.468;2023-07-13T06:51:16;98493.16;;;28.96;35.82
81057;BME280;70563;50.084;14.468;2023-07-13T06:53:42;98500.16;;;29.11;35.18
81057;BME280;70563;50.084;14.468;2023-07-13T06:56:09;98495.28;;;28.49;35.62
81057;BME280;70563;50.084;14.468;2023-07-13T06:58:35;98515.47;;;28.71;35.36
81057;BME280;70563;50.084;14.468;2023-07-13T07:01:01;98519.47;;;27.96;36.56
81057;BME280;70563;50.084;14.468;2023-07-13T07:03:29;98511.81;;;27.84;37.48
81057;BME280;70563;50.084;14.468;2023-07-13T07:06:00;98507.44;;;29.24;35.12
81057;BME280;70563;50.084;14.468;2023-07-13T07:08:26;98500.25;;;30.39;32.47
81057;BME280;70563;50.084;14.468;2023-07-13T07:10:51;98505.09;;;31.93;30.01
81057;BME280;70563;50.084;14.468;2023-07-13T07:13:19;98505.78;;;31.35;30.65
81057;BME280;70563;50.084;14.468;2023-07-13T07:15:44;98508.50;;;30.83;31.24
81057;BME280;70563;50.084;14.468;2023-07-13T07:18:10;98518.88;;;30.46;31.70
81057;BME280;70563;50.084;14.468;2023-07-13T07:20:35;98513.09;;;29.90;32.93
81057;BME280;70563;50.084;14.468;2023-07-13T07:23:01;98523.97;;;30.39;32.18
81057;BME280;70563;50.084;14.468;2023-07-13T07:25:26;98522.38;;;31.59;30.06
81057;BME280;70563;50.084;14.468;2023-07-13T07:27:52;98528.31;;;31.70;30.50
81057;BME280;70563;50.084;14.468;2023-07-13T07:30:17;98530.66;;;30.15;32.49
81057;BME280;70563;50.084;14.468;2023-07-13T07:32:42;98528.25;;;29.29;34.02
81057;BME280;70563;50.084;14.468;2023-07-13T07:35:08;98536.69;;;30.12;33.16
81057;BME280;70563;50.084;14.468;2023-07-13T07:37:33;98528.00;;;29.93;33.31
81057;BME280;70563;50.084;14.468;2023-07-13T07:39:59;98536.63;;;32.50;29.28
81057;BME280;70563;50.084;14.468;2023-07-13T07:42:24;98534.84;;;33.38;27.94
81057;BME280;70563;50.084;14.468;2023-07-13T07:44:50;98538.28;;;34.54;25.32
81057;BME280;70563;50.084;14.468;2023-07-13T07:47:15;98536.25;;;36.07;22.68
81057;BME280;70563;50.084;14.468;2023-07-13T07:49:41;98537.69;;;35.41;23.73
81057;BME280;70563;50.084;14.468;2023-07-13T07:52:06;98529.44;;;35.41;23.53
81057;BME280;70563;50.084;14.468;2023-07-13T07:54:35;98545.41;;;32.35;27.04
81057;BME280;70563;50.084;14.468;2023-07-13T07:57:00;98542.63;;;31.58;28.92
81057;BME280;70563;50.084;14.468;2023-07-13T07:59:26;98545.31;;;29.21;32.46
81057;BME280;70563;50.084;14.468;2023-07-13T08:01:51;98540.44;;;28.95;33.39
81057;BME280;70563;50.084;14.468;2023-07-13T08:04:17;98541.69;;;28.12;35.44
81057;BME280;70563;50.084;14.468;2023-07-13T08:06:42;98545.69;;;27.54;35.39
81057;BME280;70563;50.084;14.468;2023-07-13T08:09:08;98549.50;;;28.13;33.94
81057;BME280;70563;50.084;14.468;2023-07-13T08:11:33;98551.50;;;28.77;31.18
81057;BME280;70563;50.084;14.468;2023-07-13T08:13:59;98550.84;;;30.14;28.41
81057;BME280;70563;50.084;14.468;2023-07-13T08:16:26;98553.56;;;31.15;26.76
81057;BME280;70563;50.084;14.468;2023-07-13T08:18:51;98557.56;;;31.61;25.95
81057;BME280;70563;50.084;14.468;2023-07-13T08:21:16;98562.50;;;31.67;26.20
81057;BME280;70563;50.084;14.468;2023-07-13T08:23:45;98563.97;;;30.87;27.31
81057;BME280;70563;50.084;14.468;2023-07-13T08:26:10;98564.63;;;32.97;24.62
81057;BME280;70563;50.084;14.468;2023-07-13T08:28:35;98558.19;;;32.52;25.47
81057;BME280;70563;50.084;14.468;2023-07-13T08:31:05;98562.19;;;32.16;26.37
81057;BME280;70563;50.084;14.468;2023-07-13T08:33:33;98561.66;;;31.93;26.30
81057;BME280;70563;50.084;14.468;2023-07-13T08:35:59;98566.22;;;34.84;22.46
81057;BME280;70563;50.084;14.468;2023-07-13T08:38:25;98561.91;;;37.16;19.28
81057;BME280;70563;50.084;14.468;2023-07-13T08:40:55;98559.72;;;37.06;19.10
81057;BME280;70563;50.084;14.468;2023-07-13T08:43:34;98555.16;;;38.22;17.87
81057;BME280;70563;50.084;14.468;2023-07-13T08:46:18;98557.25;;;40.34;15.38
81057;BME280;70563;50.084;14.468;2023-07-13T08:48:51;98556.00;;;38.26;17.49
81057;BME280;70563;50.084;14.468;2023-07-13T08:51:43;98561.28;;;37.65;18.40
81057;BME280;70563;50.084;14.468;2023-07-13T08:54:35;98554.06;;;36.80;19.39
81057;BME280;70563;50.084;14.468;2023-07-13T08:57:19;98556.44;;;34.46;21.18
81057;BME280;70563;50.084;14.468;2023-07-13T08:59:47;98542.66;;;33.27;22.66
81057;BME280;70563;50.084;14.468;2023-07-13T09:02:25;98553.84;;;35.30;20.47
81057;BME280;70563;50.084;14.468;2023-07-13T09:15:24;98563.50;;;32.48;22.22
81057;BME280;70563;50.084;14.468;2023-07-13T09:17:51;98570.28;;;33.34;21.47
81057;BME280;70563;50.084;14.468;2023-07-13T09:20:29;98567.53;;;34.25;20.65
81057;BME280;70563;50.084;14.468;2023-07-13T09:22:59;98573.53;;;32.86;22.74
81057;BME280;70563;50.084;14.468;2023-07-13T09:25:30;98568.50;;;33.17;22.40
81057;BME280;70563;50.084;14.468;2023-07-13T09:28:02;98583.03;;;33.09;21.04
81057;BME280;70563;50.084;14.468;2023-07-13T09:30:43;98577.16;;;33.86;19.91
81057;BME280;70563;50.084;14.468;2023-07-13T09:33:09;98584.53;;;34.43;19.36
81057;BME280;70563;50.084;14.468;2023-07-13T09:35:35;98585.09;;;34.85;18.23
81057;BME280;70563;50.084;14.468;2023-07-13T09:38:21;98591.63;;;38.11;15.24
81057;BME280;70563;50.084;14.468;2023-07-13T09:41:03;98596.03;;;38.39;14.61
81057;BME280;70563;50.084;14.468;2023-07-13T09:43:34;98592.25;;;37.01;15.89
81057;BME280;70563;50.084;14.468;2023-07-13T09:46:00;98592.84;;;38.37;14.42
81057;BME280;70563;50.084;14.468;2023-07-13T09:48:25;98601.91;;;39.54;13.05
81057;BME280;70563;50.084;14.468;2023-07-13T09:51:06;98598.63;;;39.79;13.04
81057;BME280;70563;50.084;14.468;2023-07-13T09:53:37;98596.81;;;40.45;12.51
81057;BME280;70563;50.084;14.468;2023-07-13T09:56:24;98591.94;;;40.21;12.52
81057;BME280;70563;50.084;14.468;2023-07-13T09:58:51;98599.91;;;42.11;11.08
81057;BME280;70563;50.084;14.468;2023-07-13T10:01:32;98600.97;;;42.99;10.71
81057;BME280;70563;50.084;14.468;2023-07-13T10:03:59;98613.66;;;44.40;10.29
81057;BME280;70563;50.084;14.468;2023-07-13T10:06:24;98610.81;;;44.85;9.40
81057;BME280;70563;50.084;14.468;2023-07-13T10:08:55;98610.91;;;44.37;9.52
81057;BME280;70563;50.084;14.468;2023-07-13T10:11:26;98608.66;;;43.62;9.66
81057;BME280;70563;50.084;14.468;2023-07-13T10:13:54;98594.63;;;43.79;10.37
81057;BME280;70563;50.084;14.468;2023-07-13T10:16:25;98592.75;;;41.81;11.34
81057;BME280;70563;50.084;14.468;2023-07-13T10:18:55;98592.75;;;42.49;10.83
81057;BME280;70563;50.084;14.468;2023-07-13T10:21:23;98593.34;;;43.95;9.12
81057;BME280;70563;50.084;14.468;2023-07-13T10:23:57;98581.88;;;43.16;9.60
81057;BME280;70563;50.084;14.468;2023-07-13T10:26:33;98587.75;;;41.03;11.12
81057;BME280;70563;50.084;14.468;2023-07-13T10:29:05;98584.38;;;41.74;10.82
81057;BME280;70563;50.084;14.468;2023-07-13T10:31:37;98584.38;;;44.63;9.27
81057;BME280;70563;50.084;14.468;2023-07-13T10:34:03;98584.28;;;45.38;8.39
81057;BME280;70563;50.084;14.468;2023-07-13T10:36:39;98573.63;;;45.33;8.49
81057;BME280;70563;50.084;14.468;2023-07-13T10:39:06;98582.03;;;42.01;10.55
81057;BME280;70563;50.084;14.468;2023-07-13T10:41:38;98565.78;;;39.03;13.51
81057;BME280;70563;50.084;14.468;2023-07-13T10:44:14;98569.78;;;39.76;12.63
81057;BME280;70563;50.084;14.468;2023-07-13T10:46:43;98563.59;;;41.04;11.71
81057;BME280;70563;50.084;14.468;2023-07-13T10:49:11;98558.72;;;39.76;12.72
81057;BME280;70563;50.084;14.468;2023-07-13T10:51:37;98559.81;;;42.58;10.55
81057;BME280;70563;50.084;14.468;2023-07-13T10:54:22;98563.59;;;43.22;9.58
81057;BME280;70563;50.084;14.468;2023-07-13T10:57:06;98566.25;;;40.24;11.98
81057;BME280;70563;50.084;14.468;2023-07-13T10:59:33;98562.09;;;41.28;11.25
81057;BME280;70563;50.084;14.468;2023-07-13T11:02:11;98566.16;;;41.59;11.14
81057;BME280;70563;50.084;14.468;2023-07-13T11:04:46;98563.19;;;39.47;12.61
81057;BME280;70563;50.084;14.468;2023-07-13T11:07:28;98555.94;;;40.79;11.84
81057;BME280;70563;50.084;14.468;2023-07-13T11:09:55;98561.56;;;39.43;12.54
81057;BME280;70563;50.084;14.468;2023-07-13T11:23:07;98538.66;;;41.00;11.13
81057;BME280;70563;50.084;14.468;2023-07-13T11:25:35;98536.00;;;42.57;10.06
81057;BME280;70563;50.084;14.468;2023-07-13T11:30:38;98535.72;;;43.36;9.99
81057;BME280;70563;50.084;14.468;2023-07-13T11:33:20;98535.31;;;44.00;8.69
81057;BME280;70563;50.084;14.468;2023-07-13T11:36:05;98526.88;;;44.07;8.88
81057;BME280;70563;50.084;14.468;2023-07-13T11:38:42;98528.72;;;44.21;8.71
81057;BME280;70563;50.084;14.468;2023-07-13T11:41:20;98518.41;;;43.03;9.29
81057;BME280;70563;50.084;14.468;2023-07-13T11:43:49;98520.84;;;42.91;9.46
81057;BME280;70563;50.084;14.468;2023-07-13T11:46:20;98526.47;;;42.76;9.39
81057;BME280;70563;50.084;14.468;2023-07-13T11:48:47;98522.06;;;38.75;12.47
81057;BME280;70563;50.084;14.468;2023-07-13T11:51:30;98519.25;;;36.01;14.64
81057;BME280;70563;50.084;14.468;2023-07-13T11:54:01;98509.94;;;35.30;16.13
81057;BME280;70563;50.084;14.468;2023-07-13T11:56:28;98524.72;;;34.20;16.80
81057;BME280;70563;50.084;14.468;2023-07-13T11:58:56;98515.00;;;32.87;18.21
81057;BME280;70563;50.084;14.468;2023-07-13T12:01:24;98521.16;;;31.48;20.12
81057;BME280;70563;50.084;14.468;2023-07-13T12:03:52;98522.34;;;29.81;22.12
81057;BME280;70563;50.084;14.468;2023-07-13T12:08:59;98519.25;;;28.84;23.92
81057;BME280;70563;50.084;14.468;2023-07-13T12:11:26;98524.38;;;28.99;24.00
81057;BME280;70563;50.084;14.468;2023-07-13T12:13:52;98516.81;;;28.96;24.27
81057;BME280;70563;50.084;14.468;2023-07-13T12:18:48;98524.00;;;28.78;24.89
81057;BME280;70563;50.084;14.468;2023-07-13T12:21:18;98516.94;;;28.55;25.10
81057;BME280;70563;50.084;14.468;2023-07-13T12:23:47;98519.25;;;28.47;25.50
81057;BME280;70563;50.084;14.468;2023-07-13T12:26:14;98520.38;;;27.91;26.04
81057;BME280;70563;50.084;14.468;2023-07-13T12:28:56;98518.44;;;27.92;26.24
81057;BME280;70563;50.084;14.468;2023-07-13T12:31:51;98522.16;;;30.17;22.75
81057;BME280;70563;50.084;14.468;2023-07-13T12:34:22;98511.84;;;33.51;18.97
81057;BME280;70563;50.084;14.468;2023-07-13T12:37:01;98524.63;;;34.82;17.08
81057;BME280;70563;50.084;14.468;2023-07-13T12:39:43;98524.06;;;37.13;14.52
81057;BME280;70563;50.084;14.468;2023-07-13T12:45:03;98515.88;;;38.85;13.01
81057;BME280;70563;50.084;14.468;2023-07-13T12:47:30;98508.56;;;35.84;15.56
81057;BME280;70563;50.084;14.468;2023-07-13T12:50:00;98501.47;;;36.46;15.30
81057;BME280;70563;50.084;14.468;2023-07-13T12:52:34;98509.63;;;34.27;16.92
81057;BME280;70563;50.084;14.468;2023-07-13T12:55:10;98509.88;;;34.22;17.11
81057;BME280;70563;50.084;14.468;2023-07-13T12:57:41;98507.56;;;33.87;17.63
81057;BME280;70563;50.084;14.468;2023-07-13T13:02:51;98495.66;;;32.92;18.93
81057;BME280;70563;50.084;14.468;2023-07-13T13:05:17;98496.75;;;33.00;18.76
81057;BME280;70563;50.084;14.468;2023-07-13T13:07:43;98489.59;;;32.86;18.88
81057;BME280;70563;50.084;14.468;2023-07-13T13:10:12;98494.09;;;34.55;16.87
81057;BME280;70563;50.084;14.468;2023-07-13T13:12:42;98498.53;;;36.94;14.83
81057;BME280;70563;50.084;14.468;2023-07-13T13:15:08;98502.41;;;37.97;14.39
81057;BME280;70563;50.084;14.468;2023-07-13T13:17:34;98501.06;;;38.67;13.08
81057;BME280;70563;50.084;14.468;2023-07-13T13:19:59;98492.78;;;38.67;13.20
81057;BME280;70563;50.084;14.468;2023-07-13T13:22:25;98492.63;;;38.86;12.94
81057;BME280;70563;50.084;14.468;2023-07-13T13:24:50;98494.53;;;39.15;12.76
81057;BME280;70563;50.084;14.468;2023-07-13T13:27:22;98490.59;;;38.23;13.61
81057;BME280;70563;50.084;14.468;2023-07-13T13:29:51;98483.19;;;35.71;15.92
81057;BME280;70563;50.084;14.468;2023-07-13T13:32:18;98477.41;;;34.36;17.34